Imperial, NE

1:56 AM MDT on September 26, 2016 (GMT -0600)
Imperial Municipal | | Change Station
Active Advisory: Frost Advisory

Elev 3274 ft 40.51 °N, 101.62 °W | Updated 3 minutes ago

Clear
Clear
44 °F
Feels Like 42 °F
N
4
Wind Variable Wind from NW

Today
High -- | Low -- °F
--% Chance of Precip.
Yesterday
High -- | Low -- °F
Precip. -- in
Pressure 30.37 in
Visibility 10.0 miles
Clouds Clear
Windchill 42 °F
Dew Point 34 °F
Humidity 68%
Rainfall 0.00 in
Snow Depth Not available.
6:38 AM 6:36 PM
Waning Crescent, 21% visible
METAR KIML 260753Z AUTO 31003KT 10SM CLR 07/01 A3039 RMK AO2 SLP284 T00670011 $
Pressure 30.37 in
Visibility 10.0 miles
Clouds Clear
Windchill 42 °F
Dew Point 34 °F
Humidity 68%
Rainfall 0.00 in
Snow Depth Not available.
6:38 AM 6:36 PM
Waning Crescent, 21% visible
METAR KIML 260753Z AUTO 31003KT 10SM CLR 07/01 A3039 RMK AO2 SLP284 T00670011 $

10-Day Weather Forecast

Almanac

Astronomy

Sep. 26, 2016 Rise Set
Actual Time
Civil Twilight
Nautical Twilight
Astronomical Twilight
Moon
Length of Visible Light
Length of Day
Tomorrow will be .
, % of the Moon is Illuminated

Today's Extremes

State Highs State Lows

Community

WunderPhotos

Upload Photos

1,941,853 photos uploaded!

WunderBlog® & News

Nearby

Air Quality

  Air Quality AQ Index Pollutant
Not available.

Snow Depth

Station Depth Elevation

Earthquake Activity

City Distance Mag. Time & Date
Minimum magnitude displayed is 2.5.

Coastal Water Temperatures

Place Temperature

Stations

Nearby Weather Stations

Station Location Temp. Windchill Dew Point Humidity Wind Precip. Elev Updated Type
                   

Watches & Warnings

Frost Advisory
Issued: 12:57 PM MDT Sep. 25, 2016 – National Weather Service

... Frost advisory in effect from 4 am CDT /3 am MDT/ to 8 am CDT
/7 am MDT/ Monday...

The National Weather Service in North Platte has issued a frost
advisory... which is in effect from 4 am CDT /3 am MDT/ to 8 am
CDT /7 am MDT/ Monday.

* Temperature: low temperatures are forecast to fall into the
lower to mid 30s around dawn. The greatest probability of frost
will be in low lying areas and along river valleys.

* Impacts: sensitive outdoor plants may be killed or severely
damaged if left uncovered.

Precautionary/preparedness actions...

A frost advisory means that widespread frost is expected.
Sensitive outdoor plants may be killed if left uncovered.



Sjacobs